createdAt,value
2023-02-02T00:02:47.125Z,1.08
2023-02-02T00:05:52.580Z,1.12
2023-02-02T00:08:56.510Z,1.17
2023-02-02T00:11:59.633Z,1.24
2023-02-02T00:15:01.365Z,1.33
2023-02-02T00:18:02.938Z,1.36
2023-02-02T00:21:04.627Z,1.36
2023-02-02T00:24:08.139Z,1.40
2023-02-02T00:27:09.955Z,1.48
2023-02-02T00:30:11.724Z,1.57
2023-02-02T00:33:13.250Z,1.60
2023-02-02T00:36:15.100Z,1.60
2023-02-02T00:39:17.626Z,1.60
2023-02-02T00:42:19.381Z,1.53
2023-02-02T00:45:20.908Z,1.47
2023-02-02T00:48:23.174Z,1.42
2023-02-02T00:51:24.846Z,1.39
2023-02-02T00:54:27.130Z,1.31
2023-02-02T00:57:28.863Z,1.20
2023-02-02T01:00:30.425Z,1.13
2023-02-02T01:03:32.361Z,1.04
2023-02-02T01:06:34.458Z,0.96
2023-02-02T01:09:36.015Z,0.89
2023-02-02T01:12:37.724Z,0.83
2023-02-02T01:15:39.248Z,0.78
2023-02-02T01:18:41.398Z,0.73
2023-02-02T01:21:43.780Z,0.65
2023-02-02T01:24:45.663Z,0.52
2023-02-02T01:27:47.162Z,0.39
2023-02-02T01:30:49.100Z,0.30
2023-02-02T01:33:51.455Z,0.23
2023-02-02T01:36:53.301Z,0.14
2023-02-02T01:39:54.948Z,0.07
2023-02-02T01:42:56.665Z,-0.01
2023-02-02T01:45:59.207Z,-0.05
2023-02-02T01:49:06.266Z,-0.07
2023-02-02T01:52:09.030Z,-0.09
2023-02-02T01:55:13.081Z,-0.10
2023-02-02T01:58:21.502Z,-0.12
2023-02-02T02:01:23.121Z,-0.13
2023-02-02T02:04:25.391Z,-0.15
2023-02-02T02:07:27.098Z,-0.18
2023-02-02T02:10:28.737Z,-0.21
2023-02-02T02:13:31.863Z,-0.25
2023-02-02T02:16:38.549Z,-0.24
2023-02-02T02:19:46.173Z,-0.22
2023-02-02T02:23:30.145Z,-0.20
2023-02-02T02:26:50.690Z,-0.17
2023-02-02T02:30:29.483Z,-0.15
2023-02-02T02:33:42.843Z,-0.14
2023-02-02T02:37:04.592Z,-0.12
2023-02-02T02:40:41.755Z,-0.11
2023-02-02T02:43:51.541Z,-0.07
2023-02-02T02:46:53.462Z,-0.04
2023-02-02T02:49:55.149Z,-0.02
2023-02-02T02:53:04.325Z,0.00
2023-02-02T02:56:16.952Z,0.01
2023-02-02T02:59:30.171Z,0.01
2023-02-02T03:03:05.756Z,0.01
2023-02-02T03:06:20.999Z,0.02
2023-02-02T03:09:26.186Z,0.03
2023-02-02T03:12:27.963Z,0.05
2023-02-02T03:15:29.793Z,0.06
2023-02-02T03:18:33.165Z,0.08
2023-02-02T03:21:35.102Z,0.09
2023-02-02T03:24:36.783Z,0.11
2023-02-02T03:27:39.499Z,0.13
2023-02-02T03:30:41.741Z,0.11
2023-02-02T03:33:43.452Z,0.09
2023-02-02T03:36:44.904Z,0.07
2023-02-02T03:39:46.617Z,0.06
2023-02-02T03:42:48.205Z,0.05
2023-02-02T03:45:57.608Z,0.05
2023-02-02T03:48:59.130Z,0.05
2023-02-02T03:52:00.658Z,0.06
2023-02-02T03:55:02.239Z,0.06
2023-02-02T03:58:04.018Z,0.09
2023-02-02T04:01:08.116Z,0.12
2023-02-02T04:04:09.697Z,0.13
2023-02-02T04:07:11.335Z,0.15
2023-02-02T04:10:13.036Z,0.18
2023-02-02T04:13:14.789Z,0.21
2023-02-02T04:16:16.522Z,0.23
2023-02-02T04:19:18.392Z,0.24
2023-02-02T04:22:20.197Z,0.22
2023-02-02T04:25:21.983Z,0.21
2023-02-02T04:28:24.056Z,0.19
2023-02-02T04:31:25.877Z,0.17
2023-02-02T04:34:27.835Z,0.15
2023-02-02T04:37:33.554Z,0.13
2023-02-02T04:40:38.710Z,0.13
2023-02-02T04:43:40.662Z,0.18
2023-02-02T04:46:43.795Z,0.23
2023-02-02T04:49:45.406Z,0.29
2023-02-02T04:52:47.039Z,0.30
2023-02-02T04:55:48.759Z,0.30
2023-02-02T04:58:50.168Z,0.33
2023-02-02T05:01:51.872Z,0.36
2023-02-02T05:04:53.410Z,0.35
2023-02-02T05:07:54.923Z,0.18
2023-02-02T05:10:56.750Z,-0.02
2023-02-02T05:13:58.501Z,-0.06
2023-02-02T05:17:00.061Z,-0.02
2023-02-02T05:20:01.705Z,-0.02
2023-02-02T05:23:03.311Z,0.02
2023-02-02T05:26:04.817Z,0.05
2023-02-02T05:29:06.421Z,0.04
2023-02-02T05:32:08.365Z,0.04
2023-02-02T05:35:10.926Z,-0.03
2023-02-02T05:38:12.529Z,-0.06
2023-02-02T05:41:14.172Z,-0.09
2023-02-02T05:44:16.740Z,-0.04
2023-02-02T05:47:18.439Z,0.05
2023-02-02T05:50:20.104Z,0.14
2023-02-02T05:53:21.739Z,0.17
2023-02-02T05:56:23.282Z,0.35
2023-02-02T05:59:25.298Z,0.62
2023-02-02T06:02:26.782Z,0.71
2023-02-02T06:05:28.659Z,0.48
2023-02-02T06:08:30.213Z,0.36
2023-02-02T06:11:31.852Z,0.31
2023-02-02T06:14:33.386Z,0.30
2023-02-02T06:17:35.034Z,0.29
2023-02-02T06:20:37.050Z,0.28
2023-02-02T06:23:38.599Z,0.27
2023-02-02T06:26:40.489Z,0.40
2023-02-02T06:29:42.245Z,0.59
2023-02-02T06:32:43.886Z,0.67
2023-02-02T06:35:45.517Z,0.73
2023-02-02T06:38:51.876Z,0.81
2023-02-02T06:41:53.442Z,0.89
2023-02-02T06:44:54.976Z,0.97
2023-02-02T06:48:00.703Z,1.05
2023-02-02T06:51:02.607Z,1.11
2023-02-02T06:54:04.385Z,1.19
2023-02-02T06:57:06.122Z,1.31
2023-02-02T07:00:08.556Z,1.43
2023-02-02T07:03:10.105Z,1.57
2023-02-02T07:06:13.982Z,1.74
2023-02-02T07:09:15.873Z,1.85
2023-02-02T07:12:17.568Z,1.91
2023-02-02T07:15:19.221Z,1.97
2023-02-02T07:18:20.744Z,2.01
2023-02-02T07:21:24.571Z,2.01
2023-02-02T07:24:26.292Z,2.00
2023-02-02T07:27:28.102Z,2.00
2023-02-02T07:30:29.859Z,2.00
2023-02-02T07:33:31.748Z,1.97
2023-02-02T07:36:33.313Z,1.94
2023-02-02T07:39:34.918Z,1.88
2023-02-02T07:42:36.889Z,1.85
2023-02-02T07:45:38.806Z,1.81
2023-02-02T07:48:40.827Z,1.74
2023-02-02T07:51:47.238Z,1.78
2023-02-02T07:54:49.383Z,1.86
2023-02-02T07:57:53.992Z,1.82
2023-02-02T08:00:55.638Z,1.73
2023-02-02T08:03:58.225Z,1.63
2023-02-02T08:06:59.915Z,1.57
2023-02-02T08:10:01.476Z,1.53
2023-02-02T08:13:03.144Z,1.39
2023-02-02T08:16:06.213Z,1.29
2023-02-02T08:19:09.336Z,1.23
2023-02-02T08:22:11.301Z,1.16
2023-02-02T08:25:12.841Z,1.10
2023-02-02T08:28:14.471Z,1.06
2023-02-02T08:31:19.871Z,1.03
2023-02-02T08:34:21.535Z,1.01
2023-02-02T08:37:23.571Z,0.98
2023-02-02T08:40:25.296Z,0.95
2023-02-02T08:43:26.824Z,0.89
2023-02-02T08:46:28.593Z,0.82
2023-02-02T08:49:30.134Z,0.72
2023-02-02T08:52:32.188Z,0.64
2023-02-02T08:55:33.765Z,0.61
2023-02-02T08:58:35.548Z,0.60
2023-02-02T09:01:37.136Z,0.63
2023-02-02T09:04:38.731Z,0.70
2023-02-02T09:07:40.357Z,0.71
2023-02-02T09:10:42.290Z,0.65
2023-02-02T09:13:45.243Z,0.61
2023-02-02T09:16:46.939Z,0.57
2023-02-02T09:19:48.624Z,0.55
2023-02-02T09:22:50.160Z,0.55
2023-02-02T09:25:51.862Z,0.56
2023-02-02T09:28:58.822Z,0.60
2023-02-02T09:32:00.462Z,0.66
2023-02-02T09:35:02.412Z,0.73
2023-02-02T09:38:04.164Z,0.81
2023-02-02T09:41:11.583Z,0.88
2023-02-02T09:44:19.411Z,0.95
2023-02-02T09:47:49.838Z,1.00
2023-02-02T09:51:04.021Z,1.02
2023-02-02T09:54:15.260Z,1.04
2023-02-02T09:57:23.613Z,1.07
2023-02-02T10:00:34.563Z,1.10
2023-02-02T10:03:37.373Z,1.11
2023-02-02T10:06:43.951Z,1.10
2023-02-02T10:10:04.058Z,1.09
2023-02-02T10:13:10.530Z,1.11
2023-02-02T10:16:17.328Z,1.11
2023-02-02T10:19:19.016Z,1.06
2023-02-02T10:22:24.805Z,1.02
2023-02-02T10:25:27.872Z,0.98
2023-02-02T10:28:42.546Z,0.91
2023-02-02T10:31:50.365Z,0.83
2023-02-02T10:35:20.354Z,0.79
2023-02-02T10:38:37.567Z,0.80
2023-02-02T10:41:49.408Z,0.82
2023-02-02T10:45:20.202Z,0.83
2023-02-02T10:48:28.801Z,0.79
2023-02-02T10:51:30.641Z,0.75
2023-02-02T10:54:59.506Z,0.74
2023-02-02T10:58:13.835Z,0.75
2023-02-02T11:01:15.580Z,0.76
2023-02-02T11:04:17.221Z,0.75
2023-02-02T11:07:19.035Z,0.74
2023-02-02T11:10:20.673Z,0.75
2023-02-02T11:13:31.896Z,0.78
2023-02-02T11:16:43.157Z,0.80
2023-02-02T11:19:45.611Z,0.85
2023-02-02T11:22:47.161Z,0.90
2023-02-02T11:25:57.136Z,0.92
2023-02-02T11:29:00.039Z,0.90
2023-02-02T11:32:30.999Z,0.89
2023-02-02T11:35:32.621Z,0.88
2023-02-02T11:38:34.326Z,0.89
2023-02-02T11:41:35.858Z,0.93
2023-02-02T11:44:38.880Z,0.93
2023-02-02T11:47:40.767Z,0.95
2023-02-02T11:50:51.684Z,0.97
2023-02-02T11:54:21.467Z,1.00
2023-02-02T11:57:24.929Z,1.04
2023-02-02T12:00:27.807Z,1.10
2023-02-02T12:03:31.121Z,1.13
2023-02-02T12:06:32.605Z,1.16
2023-02-02T12:09:34.645Z,1.19
2023-02-02T12:13:00.457Z,1.23
2023-02-02T12:16:21.132Z,1.29
2023-02-02T12:19:29.184Z,1.31
2023-02-02T12:23:02.245Z,1.34
2023-02-02T12:26:16.293Z,1.38
2023-02-02T12:29:23.607Z,1.42
2023-02-02T12:32:34.458Z,1.48
2023-02-02T12:35:58.998Z,1.53
2023-02-02T12:39:20.453Z,1.64
2023-02-02T12:42:46.292Z,1.77
2023-02-02T12:46:13.325Z,1.87
2023-02-02T12:49:24.244Z,1.92
2023-02-02T12:52:32.785Z,1.93
2023-02-02T12:56:05.038Z,1.91
2023-02-02T12:59:27.047Z,1.84
2023-02-02T13:03:00.710Z,1.80
2023-02-02T13:06:17.215Z,1.79
2023-02-02T13:09:21.824Z,1.80
2023-02-02T13:12:24.583Z,1.80
2023-02-02T13:15:48.072Z,1.80
2023-02-02T13:19:01.366Z,1.79
2023-02-02T13:22:06.319Z,1.77
2023-02-02T13:25:17.007Z,1.78
2023-02-02T13:28:57.132Z,1.80
2023-02-02T13:32:06.576Z,1.84
2023-02-02T13:35:36.265Z,1.89
2023-02-02T13:38:37.832Z,1.92
2023-02-02T13:41:39.823Z,1.96
2023-02-02T13:44:47.201Z,1.98
2023-02-02T13:47:54.912Z,2.02
2023-02-02T13:51:34.044Z,2.06
2023-02-02T13:54:55.832Z,2.10
2023-02-02T13:58:00.435Z,2.19
2023-02-02T14:01:06.126Z,2.24
2023-02-02T14:04:20.969Z,2.29
2023-02-02T14:07:42.337Z,2.34
2023-02-02T14:10:52.859Z,2.37
2023-02-02T14:14:00.744Z,2.36
2023-02-02T14:17:28.064Z,2.36
2023-02-02T14:20:40.762Z,2.35
2023-02-02T14:23:52.992Z,2.35
2023-02-02T14:27:02.617Z,2.34
2023-02-02T14:30:19.717Z,2.35
2023-02-02T14:33:21.268Z,2.36
2023-02-02T14:36:22.883Z,2.37
2023-02-02T14:39:26.462Z,2.40
2023-02-02T14:42:50.063Z,2.38
2023-02-02T14:46:07.117Z,2.35
2023-02-02T14:49:12.170Z,2.34
2023-02-02T14:52:23.132Z,2.33
2023-02-02T14:55:25.249Z,2.33
2023-02-02T14:58:33.065Z,2.32
2023-02-02T15:01:35.777Z,2.30
2023-02-02T15:04:37.670Z,2.33
2023-02-02T15:07:52.386Z,2.34
2023-02-02T15:10:58.807Z,2.33
2023-02-02T15:14:04.297Z,2.34
2023-02-02T15:17:12.962Z,2.33
2023-02-02T15:20:21.513Z,2.36
2023-02-02T15:23:33.093Z,2.37
2023-02-02T15:26:37.544Z,2.37
2023-02-02T15:29:45.227Z,2.40
2023-02-02T15:32:47.928Z,2.41
2023-02-02T15:35:49.880Z,2.41
2023-02-02T15:38:53.853Z,2.41
2023-02-02T15:41:55.755Z,2.40
2023-02-02T15:44:57.328Z,2.39
2023-02-02T15:47:59.591Z,2.38
2023-02-02T15:51:04.821Z,2.39
2023-02-02T15:54:21.101Z,2.37
2023-02-02T15:57:27.557Z,2.35
2023-02-02T16:04:20.208Z,2.34
2023-02-02T16:07:28.233Z,2.32
2023-02-02T16:10:29.945Z,2.31
2023-02-02T16:13:31.367Z,2.28
2023-02-02T16:16:38.638Z,2.25
2023-02-02T16:19:42.205Z,2.23
2023-02-02T16:22:46.798Z,2.20
2023-02-02T16:25:51.029Z,2.18
2023-02-02T16:28:52.677Z,2.13
2023-02-02T16:31:54.760Z,2.10
2023-02-02T16:34:56.317Z,2.09
2023-02-02T16:38:35.600Z,2.09
2023-02-02T16:41:37.256Z,2.08
2023-02-02T16:44:38.725Z,2.06
2023-02-02T16:47:40.317Z,2.02
2023-02-02T16:50:41.876Z,1.99
2023-02-02T16:53:46.000Z,1.98
2023-02-02T16:56:52.398Z,1.97
2023-02-02T16:59:56.820Z,1.95
2023-02-02T17:03:04.616Z,1.92
2023-02-02T17:06:06.862Z,1.91
2023-02-02T17:09:15.898Z,1.91
2023-02-02T17:12:32.241Z,1.91
2023-02-02T17:15:36.044Z,1.88
2023-02-02T17:18:37.656Z,1.86
2023-02-02T17:21:39.254Z,1.84
2023-02-02T17:24:42.865Z,1.85
2023-02-02T17:27:45.465Z,1.85
2023-02-02T17:30:49.760Z,1.84
2023-02-02T17:33:51.449Z,1.83
2023-02-02T17:36:52.876Z,1.76
2023-02-02T17:39:54.492Z,1.56
2023-02-02T17:42:55.961Z,1.39
2023-02-02T17:45:58.022Z,1.32
2023-02-02T17:48:59.724Z,1.25
2023-02-02T17:52:01.256Z,1.22
2023-02-02T17:55:03.044Z,1.18
2023-02-02T17:58:04.416Z,1.15
2023-02-02T18:01:06.490Z,1.13
2023-02-02T18:04:11.510Z,1.13
2023-02-02T18:07:13.115Z,1.11
2023-02-02T18:10:15.323Z,1.08
2023-02-02T18:13:19.126Z,1.07
2023-02-02T18:16:20.831Z,1.06
2023-02-02T18:19:22.471Z,1.07
2023-02-02T18:22:24.201Z,1.09
2023-02-02T18:25:26.190Z,1.07
2023-02-02T18:28:28.041Z,1.07
2023-02-02T18:31:29.637Z,1.04
2023-02-02T18:34:31.643Z,1.02
2023-02-02T18:37:33.269Z,0.99
2023-02-02T18:40:34.911Z,0.98
2023-02-02T18:43:36.497Z,0.99
2023-02-02T18:46:38.034Z,1.01
2023-02-02T18:49:39.535Z,1.01
2023-02-02T18:52:41.231Z,0.99
2023-02-02T18:55:42.834Z,0.96
2023-02-02T18:58:44.313Z,0.97
2023-02-02T19:01:46.095Z,0.94
2023-02-02T19:04:47.877Z,0.93
2023-02-02T19:07:49.664Z,0.92
2023-02-02T19:10:58.583Z,0.87
2023-02-02T19:14:00.067Z,0.84
2023-02-02T19:17:16.874Z,0.82
2023-02-02T19:20:28.463Z,0.79
2023-02-02T19:23:30.214Z,0.79
2023-02-02T19:26:32.590Z,0.77
2023-02-02T19:29:35.899Z,0.77
2023-02-02T19:32:37.758Z,0.75
2023-02-02T19:35:39.288Z,0.72
2023-02-02T19:38:41.113Z,0.70
2023-02-02T19:41:42.610Z,0.64
2023-02-02T19:44:44.475Z,0.55
2023-02-02T19:47:46.050Z,0.45
2023-02-02T19:50:47.763Z,0.38
2023-02-02T19:53:49.357Z,0.37
2023-02-02T19:56:56.749Z,0.38
2023-02-02T19:59:59.025Z,0.41
2023-02-02T20:03:05.526Z,0.36
2023-02-02T20:06:12.696Z,0.28
2023-02-02T20:09:16.570Z,0.24
2023-02-02T20:12:30.657Z,0.22
2023-02-02T20:15:36.396Z,0.22
2023-02-02T20:18:49.066Z,0.21
2023-02-02T20:21:52.590Z,0.22
2023-02-02T20:24:56.101Z,0.25
2023-02-02T20:27:58.975Z,0.24
2023-02-02T20:31:05.220Z,0.25
2023-02-02T20:34:25.731Z,0.20
2023-02-02T20:37:29.968Z,0.07
2023-02-02T20:40:31.482Z,-0.13
2023-02-02T20:43:33.023Z,-0.33
2023-02-02T20:46:53.918Z,-0.47
2023-02-02T20:49:55.508Z,-0.57
2023-02-02T20:52:57.263Z,-0.65
2023-02-02T20:55:58.687Z,-0.70
2023-02-02T20:59:00.659Z,-0.73
2023-02-02T21:02:02.426Z,-0.74
2023-02-02T21:05:09.292Z,-0.76
2023-02-02T21:08:10.823Z,-0.75
2023-02-02T21:11:12.448Z,-0.76
2023-02-02T21:14:14.081Z,-0.73
2023-02-02T21:17:16.267Z,-0.66
2023-02-02T21:20:18.594Z,-0.46
2023-02-02T21:23:20.177Z,-0.39
2023-02-02T21:26:23.529Z,-0.44
2023-02-02T21:29:44.925Z,-0.48
2023-02-02T21:32:46.873Z,-0.46
2023-02-02T21:35:48.462Z,-0.38
2023-02-02T21:38:50.036Z,-0.41
2023-02-02T21:42:07.085Z,-0.48
2023-02-02T21:45:37.433Z,-0.54
2023-02-02T21:48:39.111Z,-0.58
2023-02-02T21:51:40.763Z,-0.61
2023-02-02T21:54:42.994Z,-0.64
2023-02-02T21:57:44.786Z,-0.66
2023-02-02T22:00:46.818Z,-0.66
2023-02-02T22:03:49.223Z,-0.68
2023-02-02T22:07:08.453Z,-0.68
2023-02-02T22:10:37.404Z,-0.66
2023-02-02T22:13:39.084Z,-0.59
2023-02-02T22:16:46.702Z,-0.47
2023-02-02T22:19:55.833Z,-0.36
2023-02-02T22:22:57.374Z,-0.31
2023-02-02T22:25:59.126Z,-0.28
2023-02-02T22:29:02.324Z,-0.30
2023-02-02T22:32:03.882Z,-0.34
2023-02-02T22:35:05.665Z,-0.37
2023-02-02T22:38:07.227Z,-0.41
2023-02-02T22:41:08.924Z,-0.43
2023-02-02T22:44:10.416Z,-0.43
2023-02-02T22:47:11.980Z,-0.40
2023-02-02T22:50:14.820Z,-0.35
2023-02-02T22:53:16.341Z,-0.37
2023-02-02T22:56:17.830Z,-0.41
2023-02-02T22:59:19.475Z,-0.44
2023-02-02T23:02:20.985Z,-0.46
2023-02-02T23:05:24.349Z,-0.44
2023-02-02T23:08:26.059Z,-0.42
2023-02-02T23:11:27.513Z,-0.38
2023-02-02T23:14:29.137Z,-0.33
2023-02-02T23:17:30.656Z,-0.31
2023-02-02T23:20:32.276Z,-0.32
2023-02-02T23:23:33.848Z,-0.33
2023-02-02T23:26:35.434Z,-0.37
2023-02-02T23:29:36.963Z,-0.41
2023-02-02T23:32:38.503Z,-0.45
2023-02-02T23:35:40.004Z,-0.49
2023-02-02T23:38:41.487Z,-0.50
2023-02-02T23:41:43.043Z,-0.51
2023-02-02T23:44:44.546Z,-0.51
2023-02-02T23:47:46.214Z,-0.50
2023-02-02T23:50:47.897Z,-0.48
2023-02-02T23:53:49.622Z,-0.48
2023-02-02T23:56:51.054Z,-0.45
2023-02-02T23:59:53.051Z,-0.44
